WetterOnline ( https://www.wetteronline.de )

Wetter aktuell Paderborn

Aktuelles Wetter: Bad Lippspringe (158m)

6-stündlich | Neueste Meldungen
Ortszeit Temperatur Wetter
Sa, 24.02. 13:00 6.8° C bedeckt
Sa, 24.02. 7:00 3.1° C wolkig
Sa, 24.02. 1:00 4.2° C leicht bewölkt
Fr, 23.02. 19:00 6.2° C leicht bewölkt
Fr, 23.02. 13:00 8.1° C bewölkt
Fr, 23.02. 7:00 5.2° C bewölkt
Fr, 23.02. 1:00 8.0° C bewölkt
Do, 22.02. 19:00 11.4° C leichter Regen
Ortszeit Temperatur Wetter
Sa, 24.02. 13:00 6.8° C bedeckt
Sa, 24.02. 12:50 6.8° C bedeckt
Sa, 24.02. 12:40 7.0° C bedeckt
Sa, 24.02. 12:30 6.6° C bedeckt
Sa, 24.02. 12:20 6.6° C bedeckt
Sa, 24.02. 12:10 6.5° C bewölkt
Sa, 24.02. 12:00 6.5° C bedeckt
Sa, 24.02. 11:30 6.5° C bedeckt
Sa, 24.02. 11:00 6.3° C bewölkt
Sa, 24.02. 10:30 6.6° C wolkig
Sa, 24.02. 10:00 6.3° C bewölkt
Ortszeit Relative Feuchte Sichtweite
Sa, 24.02. 13:00 69% >70 km
Sa, 24.02. 7:00 84% 65 km
Sa, 24.02. 1:00 80% 65 km
Fr, 23.02. 19:00 67% 60 km
Fr, 23.02. 13:00 57% >70 km
Fr, 23.02. 7:00 69% 60 km
Fr, 23.02. 1:00 63% >70 km
Do, 22.02. 19:00 80% 60 km
Ortszeit Relative Feuchte Sichtweite
Sa, 24.02. 13:00 69% >70 km
Sa, 24.02. 12:50 69% -
Sa, 24.02. 12:40 71% -
Sa, 24.02. 12:30 72% >70 km
Sa, 24.02. 12:20 72% -
Sa, 24.02. 12:10 71% -
Sa, 24.02. 12:00 71% >70 km
Sa, 24.02. 11:30 72% >70 km
Sa, 24.02. 11:00 72% >70 km
Sa, 24.02. 10:30 68% 60 km
Sa, 24.02. 10:00 70% >70 km
Ortszeit Niederschlagsmenge Niederschlagsart
Sa, 24.02. 13:00 0.1 l/m2 in 6 Std. Regen
Sa, 24.02. 7:00 0.0 l/m2 in 12 Std. -
Sa, 24.02. 1:00 0.0 l/m2 in 6 Std. -
Fr, 23.02. 19:00 0.1 l/m2 in 12 Std. Regen
Fr, 23.02. 13:00 0.0 l/m2 in 6 Std. -
Fr, 23.02. 7:00 2 l/m2 in 12 Std. Regen
Fr, 23.02. 1:00 2 l/m2 in 6 Std. Regen
Do, 22.02. 19:00 1 l/m2 in 12 Std. Regen
Ortszeit Niederschlagsmenge Niederschlagsart
Sa, 24.02. 13:00 0.0 l/m2 in 1 Std. Regen
Sa, 24.02. 12:50 keine Meldung -
Sa, 24.02. 12:40 keine Meldung -
Sa, 24.02. 12:30 0.0 l/m2 in 30 Min -
Sa, 24.02. 12:20 keine Meldung -
Sa, 24.02. 12:10 keine Meldung -
Sa, 24.02. 12:00 <0.05 l/m2 in 1 Std. Regen
Sa, 24.02. 11:30 <0.05 l/m2 in 30 Min Schneeregen
Sa, 24.02. 11:00 0.0 l/m2 in 1 Std. -
Sa, 24.02. 10:30 0.0 l/m2 in 30 Min -
Sa, 24.02. 10:00 0.0 l/m2 in 1 Std. -
Ortszeit Stärke Spitze Richtung
km/h Bft. km/h Grad Sektor
Sa, 24.02. 13:00 17 3 33 210° SW
Sa, 24.02. 7:00 7 2 22 150° SO
Sa, 24.02. 1:00 11 2 32 160° S
Fr, 23.02. 19:00 11 2 47 170° S
Fr, 23.02. 13:00 30 5 54 220° SW
Fr, 23.02. 7:00 24 4 85 240° SW
Fr, 23.02. 1:00 37 5 78 240° SW
Do, 22.02. 19:00 14 3 32 190° S
Ortszeit Stärke Spitze Richtung
km/h Bft. km/h Grad Sektor
Sa, 24.02. 13:00 17 3 33 210° SW
Sa, 24.02. 12:50 17 3 - 210° SW
Sa, 24.02. 12:40 18 3 - 200° S
Sa, 24.02. 12:30 18 3 29 200° S
Sa, 24.02. 12:20 18 3 - 200° S
Sa, 24.02. 12:10 14 3 - 210° SW
Sa, 24.02. 12:00 19 3 30 200° S
Sa, 24.02. 11:30 14 3 29 190° S
Sa, 24.02. 11:00 15 3 33 180° S
Sa, 24.02. 10:30 15 3 33 190° S
Sa, 24.02. 10:00 14 3 29 190° S
Ortszeit Untergrenze Bedeckung Gattung
total tief tief mittel hoch
Sa, 24.02. 13:00 750 m 8/8 8/8 - - -
Sa, 24.02. 7:00 750 m 7/8 3/8 - - -
Sa, 24.02. 1:00 1800 m 5/8 1/8 - - -
Fr, 23.02. 19:00 1800 m 4/8 4/8 - - -
Fr, 23.02. 13:00 1290 m 7/8 7/8 - - -
Fr, 23.02. 7:00 1050 m 7/8 7/8 - - -
Fr, 23.02. 1:00 1260 m 7/8 7/8 - - -
Do, 22.02. 19:00 930 m 8/8 8/8 - - -
Ortszeit Bedeckungsgrad in Achtel und Wolkenuntergrenze
Sa, 24.02. 13:00 3(750m) 7(1020m) 8(2400m)
Sa, 24.02. 12:50 3(750m) 7(1020m) 8(2400m)
Sa, 24.02. 12:40 8
Sa, 24.02. 12:30 7(780m) 8(930m)
Sa, 24.02. 12:20 7(780m) 8(930m)
Sa, 24.02. 12:10 7
Sa, 24.02. 12:00 4(750m) 7(930m) 8(1170m)
Sa, 24.02. 11:30 5(1200m) 8(2100m) 8(4500m)
Sa, 24.02. 11:00 4(1410m) 8(4200m) 8(4800m)
Sa, 24.02. 10:30 3(1440m) 6(4200m) 7(4800m)
Sa, 24.02. 10:00 6(1440m) 7(5400m) 7(6300m)
Ortszeit Luftdruck NN (hPa) Tendenz (hPa in 3 Std.)
Sa, 24.02. 13:00 1001 + 1,2
Sa, 24.02. 7:00 998 + 1,0
Sa, 24.02. 1:00 997 + 0,2
Fr, 23.02. 19:00 996 + 0,7
Fr, 23.02. 13:00 994 + 0,2
Fr, 23.02. 7:00 993 + 1,8
Fr, 23.02. 1:00 986 + 4,0
Do, 22.02. 19:00 983 - 3,2
Ortszeit Luftdruck NN (hPa) Tendenz (hPa in 3 Std.)
Sa, 24.02. 13:00 1001 + 1,2
Sa, 24.02. 12:50 1001 keine Meldung
Sa, 24.02. 12:40 1001 keine Meldung
Sa, 24.02. 12:30 1001 + 1,1
Sa, 24.02. 12:20 1001 keine Meldung
Sa, 24.02. 12:10 1001 keine Meldung
Sa, 24.02. 12:00 1000 + 1,2
Sa, 24.02. 11:30 1000 + 1,5
Sa, 24.02. 11:00 1000 + 1,4
Sa, 24.02. 10:30 1000 + 1,3
Sa, 24.02. 10:00 999 + 1,5
Ortszeit Schneehöhe (cm)
Sa, 24.02. 13:00 0
Sa, 24.02. 7:00 0
Sa, 24.02. 1:00 0
Fr, 23.02. 19:00 0
Fr, 23.02. 13:00 0
Fr, 23.02. 7:00 0
Fr, 23.02. 1:00 0
Do, 22.02. 19:00 0
Ortszeit Schneehöhe (cm)
Sa, 24.02. 13:00 0
Sa, 24.02. 12:50 0
Sa, 24.02. 12:40 -
Sa, 24.02. 12:30 0
Sa, 24.02. 12:20 0
Sa, 24.02. 12:10 -
Sa, 24.02. 12:00 0
Sa, 24.02. 11:30 0
Sa, 24.02. 11:00 0
Sa, 24.02. 10:30 0
Sa, 24.02. 10:00 0
Link zu dieser Seite / Seite empfehlen

Das Wetter in ...